This is the latest recevied weather packets stored in our database for station/object KE7KUS-14. If no packets are shown the sender has not sent any weather packets the latest 10 day(s).
| Time | Temp. | Humidity | Pressure | Rain* | Wind** | Luminosity | Snow |
|---|---|---|---|---|---|---|---|
| 1777834361 | 15° C | 53% | 1029.7 hPa | 0 mm | - | 460 W/m² | - |
| 1777831311 | 15° C | 51% | 1030.3 hPa | 0 mm | - | 588 W/m² | - |
| 1777828323 | 13.89° C | 58% | 1030.7 hPa | 0 mm | - | 592 W/m² | - |
| 1777824687 | 12.78° C | 54% | 1031 hPa | 0 mm | - | 319 W/m² | - |
| 1777822869 | 12.22° C | 51% | 1030.9 hPa | 0 mm | - | 296 W/m² | - |
| 1777821700 | 12.22° C | 52% | 1030.8 hPa | 0 mm | - | 336 W/m² | - |
| 1777818145 | 9.44° C | 70% | 1030.9 hPa | 0 mm | - | 182 W/m² | - |
| 1777813906 | 5° C | 80% | 1030.4 hPa | 0 mm | - | 53 W/m² | - |
| 1777812087 | 3.89° C | 82% | 1029.9 hPa | 0 mm | - | 20 W/m² | - |
| 1777810918 | 2.78° C | 85% | 1029.9 hPa | 0 mm | - | 4 W/m² | - |
| 1777806112 | 3.33° C | 83% | 1030.2 hPa | 0 mm | - | 0 W/m² | - |
| 1777801912 | 3.89° C | 82% | 1030.2 hPa | 0 mm | - | 0 W/m² | - |
| 1777795334 | 3.33° C | 82% | 1031.5 hPa | 0 mm | - | 0 W/m² | - |
| 1777791698 | 4.44° C | 81% | 1031.5 hPa | 0 mm | - | 0 W/m² | - |
| 1777788122 | 4.44° C | 82% | 1031.3 hPa | 0 mm | - | 0 W/m² | - |
| 1777787537 | 4.44° C | 82% | 1031.4 hPa | 0 mm | - | 0 W/m² | - |
| 1777786305 | 4.44° C | 82% | 1031.1 hPa | 0 mm | - | 0 W/m² | - |
| 1777785722 | 4.44° C | 81% | 1031.1 hPa | 0 mm | - | 0 W/m² | - |
| 1777777335 | 6.67° C | 78% | 1030.8 hPa | 0 mm | - | 0 W/m² | - |
| 1777774932 | 8.33° C | 74% | 1030.3 hPa | 0 mm | - | 0 W/m² | - |
| 1777772530 | 10° C | 66% | 1030.1 hPa | 0 mm | - | 3 W/m² | - |
| 1777770126 | 10.56° C | 63% | 1029.9 hPa | 0 mm | - | 38 W/m² | - |
| 1777769541 | 11.11° C | 61% | 1029.9 hPa | 0 mm | - | 58 W/m² | - |
| 1777766594 | 13.33° C | 55% | 1029.4 hPa | 0 mm | - | 207 W/m² | - |
| 1777765964 | 12.78° C | 53% | 1029.5 hPa | 0 mm | - | 245 W/m² | - |
* Rain latest hour (hover to see other rain measurements)
** Current wind speed in m/s (hover to see current wind gust speed)